Templeton, MA

9:59 AM EDT on September 02, 2015 (GMT -0400)
S. Main St. East Templeton | | Change Station
CLOSE
Current Station
Personal Weather Station
Location: East Templeton, MA
Elevation: 1033 ft
Nearby Weather Stations

Elev 1033 ft 42.56 °N, 72.04 °W | Updated 4 minutes ago

Partly Cloudy
Partly Cloudy
74.9 °F
Feels Like 76 °F
N
2.0
Wind Variable Wind from WSW
Gusts 7.0 mph

Today
High -- | Low -- °F
--% Chance of Precip.
Yesterday
High -- | Low -- °F
Precip. -- in
6:13 AM 7:21 PM
Waning Gibbous, 80% visible
Pressure 30.01 in
Visibility 7.0 miles
Clouds Mostly Cloudy 200 ft
Heat Index 76 °F
Dew Point 67 °F
Humidity 76%
Rainfall 0.00 in
Snow Depth Not available.
UV 3 out of 12
Pollen 9.80 out of 12
Air Quality Not available.
Flu Activity Not available.
METAR KORE 021352Z AUTO 00000KT 7SM BKN002 18/17 A3001 RMK AO2 SLP163 T01830172
Pressure 30.01 in
Visibility 7.0 miles
Clouds Mostly Cloudy 200 ft
Heat Index 76 °F
Dew Point 67 °F
Humidity 76%
Rainfall 0.00 in
Snow Depth Not available.
UV 3 out of 12
Pollen 9.80 out of 12
Air Quality Not available.
Flu Activity Not available.
METAR KORE 021352Z AUTO 00000KT 7SM BKN002 18/17 A3001 RMK AO2 SLP163 T01830172

10-Day Weather Forecast

×

Almanac

Astronomy

Sep. 02, 2015 Rise Set
Actual Time
Civil Twilight
Nautical Twilight
Astronomical Twilight
Moon
Length of Visible Light
Length of Day
Tomorrow will be .
, % of the Moon is Illuminated

Today's Extremes

State Highs State Lows

Community

WunderPhotos

Upload Photos

1,851,754 photos uploaded!

WunderBlogs® & News

Nearby

Air Quality

  Air Quality AQ Index Pollutant
Not available.

Snow Depth

Station Depth Elevation

Earthquake Activity

City Distance Mag. Time & Date
Minimum magnitude displayed is 2.5.

Coastal Water Temperatures

Place Temperature

Stations

Nearby Weather Stations

Station Location Temp. Windchill Dew Point Humidity Wind Precip. Elev Updated Type